Time;durP1;ratioP1;P1;durP2;ratioP2;P2;SDS_P1;SDS_P2;PMS_P1;PMS_P2;Temp;Humidity;BMP_temperature;BMP_pressure;BME280_temperature;BME280_humidity;BME280_pressure;Samples;Min_cycle;Max_cycle;Signal;HPM_P1;HPM_P2
2023/03/22 00:00:56;;;;;;;12.50;5.63;;;;;;;10.49;100.00;98896.97;5052226;28;20191;-73
2023/03/22 00:03:24;;;;;;;10.03;6.33;;;;;;;10.42;100.00;98903.47;5052098;28;20613;-73
2023/03/22 00:05:57;;;;;;;8.20;5.53;;;;;;;10.46;100.00;98892.09;5051997;28;20235;-73
2023/03/22 00:08:25;;;;;;;9.67;5.83;;;;;;;10.39;100.00;98896.03;5051998;28;20227;-73
2023/03/22 00:10:52;;;;;;;13.03;5.13;;;;;;;10.31;100.00;98898.34;5051995;28;20691;-73
2023/03/22 00:13:19;;;;;;;12.97;4.30;;;;;;;10.35;100.00;98881.84;5051915;28;20238;-73
2023/03/22 00:15:47;;;;;;;13.20;5.53;;;;;;;10.33;100.00;98878.63;5052316;28;20205;-73
2023/03/22 00:18:15;;;;;;;8.70;5.23;;;;;;;10.26;100.00;98879.94;5051801;28;20222;-74
2023/03/22 00:20:47;;;;;;;9.40;5.30;;;;;;;10.28;100.00;98878.94;5051802;28;20260;-73
2023/03/22 00:23:14;;;;;;;13.80;5.43;;;;;;;10.23;100.00;98880.19;5051666;28;20725;-73
2023/03/22 00:25:43;;;;;;;6.50;3.70;;;;;;;10.21;100.00;98875.19;5051498;28;20234;-73
2023/03/22 00:28:10;;;;;;;11.33;6.00;;;;;;;10.12;100.00;98876.69;5051711;28;20223;-73
2023/03/22 00:30:37;;;;;;;9.17;4.40;;;;;;;10.11;100.00;98877.59;5051624;28;20192;-73
2023/03/22 00:33:04;;;;;;;9.50;5.20;;;;;;;10.09;100.00;98870.97;5051585;28;20223;-73
2023/03/22 00:35:31;;;;;;;9.63;5.10;;;;;;;10.12;100.00;98874.13;5051359;28;20203;-73
2023/03/22 00:38:04;;;;;;;9.90;5.13;;;;;;;10.25;100.00;98876.59;5051605;28;20226;-74
2023/03/22 00:40:32;;;;;;;6.80;4.33;;;;;;;10.20;100.00;98876.91;5051501;28;20281;-73
2023/03/22 00:43:01;;;;;;;9.07;5.23;;;;;;;10.23;100.00;98875.06;5051246;28;20690;-74
2023/03/22 00:45:27;;;;;;;9.20;4.87;;;;;;;10.24;100.00;98874.13;5051429;28;20627;-74
2023/03/22 00:47:54;;;;;;;9.97;5.03;;;;;;;10.05;100.00;98872.94;5051520;28;20278;-74
2023/03/22 00:50:21;;;;;;;8.60;4.97;;;;;;;10.11;100.00;98866.56;5051507;28;20195;-74
2023/03/22 00:52:48;;;;;;;5.53;4.20;;;;;;;10.17;100.00;98876.34;5051329;28;20195;-74
2023/03/22 00:55:15;;;;;;;5.37;4.00;;;;;;;10.18;100.00;98878.78;5051164;28;20214;-73
2023/03/22 00:57:42;;;;;;;13.03;6.03;;;;;;;10.25;100.00;98878.34;5051332;28;20583;-73
2023/03/22 01:00:12;;;;;;;10.80;4.70;;;;;;;10.12;100.00;98884.34;5050993;28;20199;-73
2023/03/22 01:02:40;;;;;;;6.73;3.90;;;;;;;10.14;100.00;98882.47;5050982;28;20199;-73
2023/03/22 01:05:08;;;;;;;9.97;4.73;;;;;;;10.10;100.00;98883.66;5050926;28;20196;-74
2023/03/22 01:07:37;;;;;;;12.63;5.87;;;;;;;10.10;100.00;98881.09;5050837;28;20264;-74
2023/03/22 01:10:05;;;;;;;10.10;4.27;;;;;;;9.88;100.00;98881.03;5050806;28;20636;-74
2023/03/22 01:12:32;;;;;;;8.90;5.67;;;;;;;9.92;100.00;98883.25;5051027;28;20210;-74
2023/03/22 01:14:58;;;;;;;8.20;4.63;;;;;;;9.86;100.00;98883.69;5050590;28;20230;-73
2023/03/22 01:17:27;;;;;;;9.03;4.97;;;;;;;9.93;100.00;98874.66;5050746;28;20584;-73
2023/03/22 01:19:54;;;;;;;7.50;6.23;;;;;;;9.95;100.00;98877.13;5050974;28;20229;-73
2023/03/22 01:22:20;;;;;;;10.43;5.73;;;;;;;10.04;100.00;98873.88;5050584;28;20582;-73
2023/03/22 01:24:48;;;;;;;8.43;4.97;;;;;;;10.20;100.00;98876.91;5050636;28;20610;-73
2023/03/22 01:27:16;;;;;;;9.57;5.00;;;;;;;10.30;100.00;98876.28;5050630;28;20227;-73
2023/03/22 01:29:43;;;;;;;10.87;5.80;;;;;;;10.19;100.00;98880.41;5050447;28;20322;-73
2023/03/22 01:32:09;;;;;;;8.40;5.43;;;;;;;10.24;100.00;98874.97;5050619;28;20688;-73
2023/03/22 01:34:38;;;;;;;9.60;5.70;;;;;;;10.30;100.00;98877.09;5050723;28;20223;-73
2023/03/22 01:37:04;;;;;;;13.70;5.60;;;;;;;10.28;100.00;98873.84;5049467;28;20671;-73
2023/03/22 01:39:31;;;;;;;8.47;4.53;;;;;;;10.44;100.00;98878.59;5050293;28;20222;-73
2023/03/22 01:41:59;;;;;;;7.00;4.13;;;;;;;10.29;100.00;98884.88;5050191;28;20199;-73
2023/03/22 01:44:29;;;;;;;7.20;4.87;;;;;;;10.28;100.00;98873.03;5050230;28;20219;-74
2023/03/22 01:46:56;;;;;;;11.57;3.80;;;;;;;10.33;100.00;98870.94;5050425;28;20212;-73
2023/03/22 01:49:27;;;;;;;9.53;4.93;;;;;;;10.38;100.00;98868.84;5050145;28;20222;-73
2023/03/22 01:51:59;;;;;;;7.50;4.10;;;;;;;10.45;100.00;98875.13;5050373;28;20200;-73
2023/03/22 01:54:34;;;;;;;10.20;4.97;;;;;;;10.60;100.00;98868.84;5050453;28;20703;-73
2023/03/22 01:57:03;;;;;;;7.20;3.97;;;;;;;10.63;100.00;98863.50;5050450;28;20576;-73
2023/03/22 01:59:31;;;;;;;6.93;4.43;;;;;;;10.68;100.00;98864.91;5049919;28;20219;-73
2023/03/22 02:02:01;;;;;;;10.17;4.57;;;;;;;10.69;100.00;98867.34;5049921;28;20206;-73
2023/03/22 02:04:33;;;;;;;10.17;4.23;;;;;;;10.61;100.00;98859.44;5049773;28;20223;-73
2023/03/22 02:07:08;;;;;;;6.07;4.23;;;;;;;10.57;100.00;98853.75;5049895;28;20225;-73
2023/03/22 02:09:38;;;;;;;7.20;4.30;;;;;;;10.54;100.00;98859.09;5050329;28;20272;-73
2023/03/22 02:12:17;;;;;;;9.27;4.10;;;;;;;10.45;100.00;98859.78;5049868;28;20261;-73
2023/03/22 02:14:58;;;;;;;8.37;4.33;;;;;;;10.35;100.00;98861.41;5049824;28;20733;-73
2023/03/22 02:17:34;;;;;;;7.93;3.87;;;;;;;10.29;100.00;98859.31;5050169;28;20919;-73
2023/03/22 02:20:46;;;;;;;7.00;4.53;;;;;;;10.31;100.00;98862.56;5049790;28;20218;-73
2023/03/22 02:23:45;;;;;;;9.70;4.50;;;;;;;10.28;100.00;98862.81;5049839;28;20238;-73
2023/03/22 02:26:48;;;;;;;7.00;4.53;;;;;;;10.30;100.00;98866.88;5047227;28;20726;-73
2023/03/22 02:29:22;;;;;;;7.80;4.67;;;;;;;10.29;100.00;98869.53;5019164;28;20260;-73
2023/03/22 02:32:25;;;;;;;8.07;4.20;;;;;;;10.32;100.00;98869.31;5049796;28;20195;-73
2023/03/22 02:35:19;;;;;;;6.57;4.10;;;;;;;10.35;100.00;98874.19;5049788;28;20398;-74
2023/03/22 02:38:20;;;;;;;12.97;5.83;;;;;;;10.34;100.00;98875.94;5049745;28;20214;-74
2023/03/22 02:40:54;;;;;;;8.03;5.03;;;;;;;10.36;100.00;98873.28;5018874;28;20198;-74
2023/03/22 02:43:33;;;;;;;7.87;5.10;;;;;;;10.32;100.00;98871.84;5049720;28;20226;-74
2023/03/22 02:46:06;;;;;;;8.80;4.60;;;;;;;10.28;100.00;98873.03;5049591;28;20282;-74
2023/03/22 02:48:40;;;;;;;7.63;3.63;;;;;;;10.24;100.00;98867.31;5053136;28;20219;-74
2023/03/22 02:51:13;;;;;;;9.43;3.40;;;;;;;10.20;100.00;98871.81;5053582;28;20249;-74
2023/03/22 02:53:47;;;;;;;6.00;4.27;;;;;;;10.25;100.00;98873.22;5053767;28;20223;-74
2023/03/22 02:56:20;;;;;;;7.47;4.07;;;;;;;10.20;100.00;98871.81;5053343;28;20708;-73
2023/03/22 02:58:52;;;;;;;5.50;3.90;;;;;;;10.23;100.00;98864.84;5053483;28;20732;-74
2023/03/22 03:01:23;;;;;;;5.77;3.27;;;;;;;10.12;100.00;98874.13;5053704;28;20658;-74
2023/03/22 03:03:55;;;;;;;9.80;3.50;;;;;;;10.13;100.00;98874.94;5053401;28;20231;-74
2023/03/22 03:06:24;;;;;;;7.03;3.83;;;;;;;10.17;100.00;98878.88;5053286;28;20449;-74
2023/03/22 03:08:53;;;;;;;5.67;3.60;;;;;;;10.14;100.00;98882.47;5053264;28;20242;-74
2023/03/22 03:11:21;;;;;;;6.63;3.50;;;;;;;10.05;100.00;98878.06;5053456;28;20644;-74
2023/03/22 03:13:48;;;;;;;5.03;4.13;;;;;;;9.99;100.00;98886.16;5052999;28;20235;-73
2023/03/22 03:16:18;;;;;;;6.23;3.17;;;;;;;10.03;100.00;98884.19;5053248;28;20203;-74
2023/03/22 03:18:51;;;;;;;6.50;3.30;;;;;;;9.83;100.00;98890.75;5053001;28;20306;-74
2023/03/22 03:21:33;;;;;;;5.43;3.60;;;;;;;10.00;100.00;98887.78;5053145;28;20210;-74
2023/03/22 03:24:13;;;;;;;5.60;3.43;;;;;;;10.03;100.00;98889.31;5053009;28;20590;-74
2023/03/22 03:26:51;;;;;;;5.07;3.53;;;;;;;9.86;100.00;98891.38;5052844;28;20230;-74
2023/03/22 03:29:25;;;;;;;5.33;3.20;;;;;;;9.68;100.00;98893.47;5052991;28;20219;-73
2023/03/22 03:32:02;;;;;;;5.73;3.40;;;;;;;9.63;100.00;98898.13;5053021;28;20200;-74
2023/03/22 03:34:34;;;;;;;5.77;4.37;;;;;;;9.64;100.00;98897.19;5053121;28;20219;-74
2023/03/22 03:37:05;;;;;;;8.43;3.40;;;;;;;9.72;100.00;98897.47;5052692;28;20207;-74
2023/03/22 03:39:37;;;;;;;4.87;3.70;;;;;;;9.92;100.00;98892.66;5052841;28;20582;-74
2023/03/22 03:42:07;;;;;;;3.97;2.70;;;;;;;10.03;100.00;98890.13;5052676;28;20199;-74
2023/03/22 03:44:36;;;;;;;6.63;3.43;;;;;;;10.05;100.00;98895.94;5052428;28;20226;-74
2023/03/22 03:47:03;;;;;;;5.20;3.23;;;;;;;10.05;100.00;98895.94;5052625;28;20227;-74
2023/03/22 03:49:30;;;;;;;6.90;4.30;;;;;;;9.99;100.00;98906.59;5052407;28;20219;-74
2023/03/22 03:51:59;;;;;;;9.83;4.90;;;;;;;9.99;100.00;98893.81;5052555;28;20915;-74
2023/03/22 03:54:26;;;;;;;5.40;3.37;;;;;;;10.22;100.00;98904.91;5052310;28;20249;-74
2023/03/22 03:56:53;;;;;;;6.17;3.13;;;;;;;10.14;100.00;98902.91;5052548;28;20211;-74
2023/03/22 03:59:22;;;;;;;6.07;4.03;;;;;;;10.15;100.00;98904.56;5051331;28;20218;-74
2023/03/22 04:01:51;;;;;;;5.73;3.67;;;;;;;10.17;100.00;98897.59;5052306;28;20205;-74
2023/03/22 04:04:24;;;;;;;8.30;3.83;;;;;;;10.24;100.00;98907.34;5052433;28;20224;-74
2023/03/22 04:06:52;;;;;;;6.37;3.60;;;;;;;10.12;100.00;98909.06;5052225;28;20223;-74
2023/03/22 04:09:19;;;;;;;6.27;3.83;;;;;;;10.15;100.00;98911.38;5052145;28;20799;-74
2023/03/22 04:11:46;;;;;;;7.03;3.63;;;;;;;10.14;100.00;98910.59;5052443;28;20664;-74
2023/03/22 04:14:14;;;;;;;6.47;3.70;;;;;;;10.16;100.00;98911.28;5051456;28;20242;-74
2023/03/22 04:16:42;;;;;;;6.70;3.13;;;;;;;10.14;100.00;98923.34;5052162;28;20215;-74
2023/03/22 04:19:09;;;;;;;6.47;4.10;;;;;;;10.18;100.00;98914.56;5052093;28;20369;-74
2023/03/22 04:21:36;;;;;;;6.07;3.27;;;;;;;10.25;100.00;98916.66;5052002;28;20214;-74
2023/03/22 04:24:03;;;;;;;3.83;3.10;;;;;;;10.30;100.00;98932.50;5051629;28;20230;-74
2023/03/22 04:26:30;;;;;;;3.43;2.90;;;;;;;10.19;100.00;98926.41;5051749;28;20206;-74
2023/03/22 04:28:57;;;;;;;4.70;3.30;;;;;;;10.19;100.00;98921.28;5051537;28;20229;-74
2023/03/22 04:31:24;;;;;;;5.00;3.73;;;;;;;10.17;100.00;98927.44;5051685;28;20195;-74
2023/03/22 04:33:55;;;;;;;6.80;3.67;;;;;;;10.16;100.00;98926.63;5051935;28;20637;-74
2023/03/22 04:36:22;;;;;;;5.17;3.07;;;;;;;10.25;100.00;98925.13;5051922;28;20213;-74
2023/03/22 04:38:49;;;;;;;5.23;2.53;;;;;;;10.38;100.00;98925.06;5051700;28;20238;-74
2023/03/22 04:41:17;;;;;;;5.80;3.50;;;;;;;10.29;100.00;98935.97;5051497;28;20199;-74
2023/03/22 04:43:45;;;;;;;6.60;3.27;;;;;;;10.30;100.00;98938.41;5051254;28;20215;-74
2023/03/22 04:46:13;;;;;;;8.43;3.63;;;;;;;10.33;100.00;98937.38;5051422;28;20210;-74
2023/03/22 04:48:41;;;;;;;4.47;3.33;;;;;;;10.30;100.00;98942.72;5051191;28;20235;-74
2023/03/22 04:51:11;;;;;;;6.83;4.60;;;;;;;10.25;100.00;98940.47;5051149;28;20694;-74
2023/03/22 04:53:38;;;;;;;4.77;3.37;;;;;;;10.31;100.00;98945.16;5051494;28;20253;-74
2023/03/22 04:56:06;;;;;;;5.40;3.67;;;;;;;10.48;100.00;98941.34;5051118;28;20200;-74
2023/03/22 04:58:34;;;;;;;4.57;3.40;;;;;;;10.41;100.00;98947.84;5051374;28;20413;-74
2023/03/22 05:01:02;;;;;;;5.63;3.50;;;;;;;10.44;100.00;98945.06;5050999;28;20211;-74
2023/03/22 05:03:28;;;;;;;5.67;3.43;;;;;;;10.37;100.00;98949.81;5051231;28;20235;-74
2023/03/22 05:05:57;;;;;;;5.33;3.10;;;;;;;10.40;100.00;98944.47;5051598;28;20207;-74
2023/03/22 05:08:26;;;;;;;5.40;3.80;;;;;;;10.43;100.00;98951.09;5050897;28;20235;-74
2023/03/22 05:10:54;;;;;;;3.67;2.53;;;;;;;10.45;100.00;98951.81;5050859;28;20698;-74
2023/03/22 05:13:23;;;;;;;6.57;3.47;;;;;;;10.44;100.00;98957.84;5050888;28;20226;-73
2023/03/22 05:15:50;;;;;;;5.83;4.07;;;;;;;10.25;100.00;98957.53;5050973;28;20203;-73
2023/03/22 05:18:19;;;;;;;7.00;3.37;;;;;;;10.28;100.00;98952.22;5050924;28;20237;-73
2023/03/22 05:20:47;;;;;;;5.03;3.73;;;;;;;10.14;100.00;98956.56;5050622;28;20272;-74
2023/03/22 05:23:18;;;;;;;7.80;4.00;;;;;;;10.14;100.00;98956.56;5051016;28;20308;-74
2023/03/22 05:25:46;;;;;;;4.67;3.30;;;;;;;10.18;100.00;98955.44;5050549;28;20199;-74
2023/03/22 05:28:13;;;;;;;3.93;2.93;;;;;;;10.18;100.00;98958.00;5050649;28;20384;-73
2023/03/22 05:30:41;;;;;;;3.93;2.80;;;;;;;10.19;100.00;98958.78;5050559;28;20199;-74
2023/03/22 05:33:08;;;;;;;6.23;3.13;;;;;;;10.14;100.00;98964.22;5050507;28;20601;-74
2023/03/22 05:35:39;;;;;;;5.13;3.37;;;;;;;10.22;100.00;98965.44;5050458;28;20202;-74
2023/03/22 05:38:07;;;;;;;3.13;2.57;;;;;;;10.18;100.00;98973.31;5050394;28;20233;-74
2023/03/22 05:40:34;;;;;;;4.03;3.07;;;;;;;10.22;100.00;98967.97;5050510;28;20195;-73
2023/03/22 05:43:02;;;;;;;5.20;3.20;;;;;;;10.27;100.00;98968.47;5050098;28;20223;-74
2023/03/22 05:45:30;;;;;;;5.17;3.70;;;;;;;10.18;100.00;98980.97;5050166;28;20203;-74
2023/03/22 05:47:57;;;;;;;5.33;2.97;;;;;;;10.19;100.00;98979.25;5050192;28;20229;-74
2023/03/22 05:50:24;;;;;;;5.23;2.87;;;;;;;10.28;100.00;98981.16;5050254;28;20672;-74
2023/03/22 05:52:52;;;;;;;5.47;2.93;;;;;;;10.34;100.00;98990.94;5050248;28;20214;-74
2023/03/22 05:55:19;;;;;;;4.83;3.07;;;;;;;10.26;100.00;98995.75;5050364;28;20256;-74
2023/03/22 05:57:50;;;;;;;6.03;3.20;;;;;;;10.25;100.00;98995.88;5050073;28;20223;-74
2023/03/22 06:00:19;;;;;;;4.47;2.83;;;;;;;10.23;100.00;98997.72;5050181;28;20198;-74
2023/03/22 06:02:48;;;;;;;5.23;2.83;;;;;;;10.18;100.00;98996.31;5049962;28;20210;-74
2023/03/22 06:05:16;;;;;;;6.67;3.53;;;;;;;10.10;100.00;99002.91;5050054;28;20602;-74
2023/03/22 06:07:43;;;;;;;6.57;3.00;;;;;;;10.11;100.00;99007.88;5049802;28;20632;-74
2023/03/22 06:10:13;;;;;;;4.23;2.70;;;;;;;10.13;100.00;99003.47;5049870;28;20211;-74
2023/03/22 06:12:40;;;;;;;6.57;4.40;;;;;;;10.09;100.00;99012.28;5049524;28;20226;-74
2023/03/22 06:15:08;;;;;;;2.67;2.17;;;;;;;10.15;100.00;99011.88;5049905;28;20730;-74
2023/03/22 06:17:37;;;;;;;5.50;2.83;;;;;;;10.05;100.00;99015.97;5049822;28;20203;-74
2023/03/22 06:20:09;;;;;;;5.80;3.73;;;;;;;10.07;100.00;99014.16;5049847;28;20203;-74
2023/03/22 06:22:36;;;;;;;2.67;2.37;;;;;;;10.02;100.00;99016.19;5049370;28;20686;-74
2023/03/22 06:25:03;;;;;;;4.70;3.53;;;;;;;9.94;100.00;99018.47;5049647;28;20223;-74
2023/03/22 06:27:30;;;;;;;5.47;3.17;;;;;;;9.99;100.00;99024.09;5049714;28;20231;-74
2023/03/22 06:29:57;;;;;;;7.37;4.57;;;;;;;9.92;100.00;99020.34;5049825;28;20260;-74
2023/03/22 06:32:25;;;;;;;5.90;3.73;;;;;;;9.82;100.00;99022.72;5049894;28;20200;-74
2023/03/22 06:34:53;;;;;;;7.10;4.37;;;;;;;9.90;100.00;99038.31;5050053;28;20222;-74
2023/03/22 06:37:20;;;;;;;7.00;3.60;;;;;;;9.98;100.00;99035.25;5049693;28;20196;-74
2023/03/22 06:39:47;;;;;;;6.90;4.73;;;;;;;9.95;100.00;99035.44;5049593;28;20703;-74
2023/03/22 06:42:15;;;;;;;5.47;4.07;;;;;;;9.92;100.00;99036.47;5049761;28;20199;-74
2023/03/22 06:44:43;;;;;;;9.60;4.40;;;;;;;9.94;100.00;99038.91;5049256;28;20233;-74
2023/03/22 06:47:11;;;;;;;8.17;4.90;;;;;;;9.99;100.00;99039.41;5049584;28;20204;-74
2023/03/22 06:49:38;;;;;;;7.67;4.37;;;;;;;10.08;100.00;99051.53;5049667;28;20856;-74
2023/03/22 06:52:07;;;;;;;12.33;4.97;;;;;;;10.01;100.00;99042.69;5049699;28;20199;-74
2023/03/22 06:54:34;;;;;;;8.97;4.70;;;;;;;10.01;100.00;99045.22;5049630;28;20587;-74
2023/03/22 06:57:01;;;;;;;6.13;3.87;;;;;;;9.89;100.00;99043.53;5049716;28;20214;-74
2023/03/22 06:59:28;;;;;;;7.20;3.27;;;;;;;9.88;100.00;99044.44;5050161;28;20222;-72
2023/03/22 07:01:55;;;;;;;6.90;4.43;;;;;;;9.97;100.00;99048.91;5050912;28;20195;-76
2023/03/22 07:04:22;;;;;;;6.03;3.87;;;;;;;10.00;100.00;99048.69;5049787;28;20782;-73
2023/03/22 07:06:50;;;;;;;4.97;4.17;;;;;;;10.03;100.00;99058.69;5049730;28;20199;-73
2023/03/22 07:09:18;;;;;;;12.70;3.70;;;;;;;9.80;100.00;99051.81;5049062;28;20242;-74
2023/03/22 07:11:45;;;;;;;7.33;4.50;;;;;;;10.01;100.00;99054.63;5049396;28;20200;-74
2023/03/22 07:14:12;;;;;;;5.57;3.40;;;;;;;9.91;100.00;99055.25;5049211;28;20231;-74
2023/03/22 07:16:39;;;;;;;12.37;4.37;;;;;;;9.80;100.00;99059.50;5049646;28;20245;-74
2023/03/22 07:19:06;;;;;;;5.40;3.63;;;;;;;9.80;100.00;99062.03;5049164;28;20314;-73
2023/03/22 07:21:33;;;;;;;6.27;3.83;;;;;;;9.91;100.00;99059.56;5049288;28;20201;-74
2023/03/22 07:24:00;;;;;;;11.10;4.37;;;;;;;9.85;100.00;99057.44;5049316;28;20735;-74
2023/03/22 07:26:29;;;;;;;6.30;4.33;;;;;;;9.91;100.00;99064.66;5049539;28;20615;-74
2023/03/22 07:28:56;;;;;;;4.80;3.57;;;;;;;9.83;100.00;99061.81;5048919;28;20299;-74
2023/03/22 07:31:23;;;;;;;9.03;4.27;;;;;;;9.78;100.00;99063.91;5049246;28;20196;-74
2023/03/22 07:33:50;;;;;;;7.30;3.73;;;;;;;9.89;100.00;99066.50;5049626;28;20219;-74
2023/03/22 07:36:22;;;;;;;8.60;3.63;;;;;;;9.76;100.00;99071.66;5052734;28;20199;-74
2023/03/22 07:38:50;;;;;;;8.53;4.03;;;;;;;9.80;100.00;99062.03;5052368;28;20310;-73
2023/03/22 07:41:17;;;;;;;8.47;3.60;;;;;;;9.94;100.00;99074.66;5052747;28;20218;-74
2023/03/22 07:43:45;;;;;;;6.30;4.13;;;;;;;9.98;100.00;99071.00;5052757;28;20222;-74
2023/03/22 07:46:12;;;;;;;9.27;4.73;;;;;;;9.95;100.00;99071.22;5052889;28;20225;-74
2023/03/22 07:48:39;;;;;;;8.93;3.93;;;;;;;10.03;100.00;99071.47;5052748;28;20411;-74
2023/03/22 07:51:07;;;;;;;7.33;3.60;;;;;;;10.00;100.00;99074.22;5052594;28;20203;-73
2023/03/22 07:53:35;;;;;;;6.30;4.03;;;;;;;9.93;100.00;99073.03;5052617;28;20223;-74
2023/03/22 07:56:03;;;;;;;12.30;5.33;;;;;;;10.08;100.00;99069.41;5052600;28;20215;-74
2023/03/22 07:58:30;;;;;;;7.37;3.43;;;;;;;9.99;100.00;99067.50;5052566;28;20219;-74
2023/03/22 08:01:03;;;;;;;9.13;3.67;;;;;;;9.98;100.00;99073.56;5052285;28;20285;-74
2023/03/22 08:03:30;;;;;;;4.47;3.77;;;;;;;10.09;100.00;99063.38;5052509;28;20223;-74
2023/03/22 08:06:02;;;;;;;7.87;4.33;;;;;;;10.22;100.00;99070.19;5052106;28;20268;-74
2023/03/22 08:08:29;;;;;;;6.03;3.73;;;;;;;10.05;100.00;99077.28;5052079;28;20331;-74
2023/03/22 08:10:56;;;;;;;7.83;4.03;;;;;;;9.97;100.00;99079.56;5052026;28;20191;-74
2023/03/22 08:13:23;;;;;;;5.97;3.77;;;;;;;10.02;100.00;99076.69;5052365;28;20234;-73
2023/03/22 08:15:50;;;;;;;7.37;4.30;;;;;;;10.09;100.00;99083.81;5052069;28;20203;-73
2023/03/22 08:18:18;;;;;;;6.93;3.70;;;;;;;9.95;100.00;99076.31;5052041;28;20223;-73
2023/03/22 08:20:45;;;;;;;8.13;4.57;;;;;;;9.98;100.00;99071.00;5051842;28;20727;-73
2023/03/22 08:23:14;;;;;;;5.10;3.53;;;;;;;10.12;100.00;99068.28;5052029;28;20226;-73
2023/03/22 08:25:42;;;;;;;7.30;3.73;;;;;;;10.06;100.00;99073.81;5051941;28;20564;-73
2023/03/22 08:28:09;;;;;;;7.13;3.70;;;;;;;10.01;100.00;99075.06;5051749;28;20324;-73
2023/03/22 08:30:37;;;;;;;8.53;4.63;;;;;;;10.00;100.00;99074.22;5051727;28;20195;-73
2023/03/22 08:33:05;;;;;;;8.97;3.80;;;;;;;9.98;100.00;99076.09;5051578;28;20215;-73
2023/03/22 08:35:33;;;;;;;5.77;3.97;;;;;;;10.04;100.00;99074.84;5051584;28;20199;-72
2023/03/22 08:38:00;;;;;;;8.97;5.10;;;;;;;10.05;100.00;99087.50;5051521;28;20246;-73
2023/03/22 08:40:27;;;;;;;4.63;3.30;;;;;;;10.05;100.00;99087.50;5051827;28;20594;-73
2023/03/22 08:42:54;;;;;;;8.00;4.73;;;;;;;10.08;100.00;99084.75;5051702;28;20207;-73
2023/03/22 08:45:21;;;;;;;7.80;4.23;;;;;;;10.07;100.00;99085.66;5051174;28;20199;-74
2023/03/22 08:47:48;;;;;;;4.87;3.23;;;;;;;10.17;100.00;99096.03;5051463;28;20205;-74
2023/03/22 08:50:14;;;;;;;7.23;3.57;;;;;;;10.14;100.00;99086.84;5051348;28;20195;-73
2023/03/22 08:52:43;;;;;;;5.27;3.17;;;;;;;10.09;100.00;99094.03;5051327;28;20203;-73
2023/03/22 08:55:10;;;;;;;5.57;3.13;;;;;;;9.98;100.00;99089.69;5051080;28;20199;-73
2023/03/22 08:57:37;;;;;;;7.13;3.83;;;;;;;9.97;100.00;99094.88;5051591;28;20203;-73
2023/03/22 09:00:09;;;;;;;5.23;3.40;;;;;;;10.04;100.00;99095.28;5050962;28;20219;-73
2023/03/22 09:02:37;;;;;;;7.10;3.97;;;;;;;10.10;100.00;99095.66;5051618;28;20711;-73
2023/03/22 09:05:05;;;;;;;3.80;2.67;;;;;;;10.02;100.00;99100.50;5051148;28;20223;-73
2023/03/22 09:07:32;;;;;;;5.97;4.30;;;;;;;9.87;100.00;99096.47;5051023;28;20327;-73
2023/03/22 09:10:00;;;;;;;7.90;4.13;;;;;;;9.85;100.00;99085.53;5050765;28;20241;-73
2023/03/22 09:12:28;;;;;;;7.07;2.77;;;;;;;9.78;100.00;99094.53;5051003;28;20195;-73
2023/03/22 09:14:55;;;;;;;4.70;2.43;;;;;;;9.81;100.00;99089.22;5051088;28;20223;-73
2023/03/22 09:17:22;;;;;;;4.73;3.00;;;;;;;9.73;100.00;99087.19;5051227;28;20199;-73
2023/03/22 09:19:49;;;;;;;4.47;3.50;;;;;;;9.73;100.00;99100.75;5050931;28;20234;-73
2023/03/22 09:22:16;;;;;;;5.60;3.30;;;;;;;9.68;100.00;99094.34;5051316;28;20297;-73
2023/03/22 09:24:43;;;;;;;6.43;3.47;;;;;;;9.87;100.00;99099.00;5050622;28;20722;-73
2023/03/22 09:27:11;;;;;;;5.60;3.90;;;;;;;9.95;100.00;99096.75;5050826;28;20218;-73
2023/03/22 09:29:38;;;;;;;5.40;3.83;;;;;;;10.03;100.00;99102.13;5050959;28;20235;-73
2023/03/22 09:32:05;;;;;;;8.00;4.00;;;;;;;9.98;100.00;99104.19;5050493;28;20199;-73
2023/03/22 09:34:32;;;;;;;7.43;3.13;;;;;;;10.01;100.00;99101.44;5050927;28;20210;-73
2023/03/22 09:37:01;;;;;;;5.93;4.30;;;;;;;10.03;100.00;99102.13;5050677;28;20214;-73
2023/03/22 09:39:28;;;;;;;15.00;5.40;;;;;;;9.91;100.00;99095.31;5050386;28;20314;-73
2023/03/22 09:42:00;;;;;;;6.10;4.07;;;;;;;10.01;100.00;99096.31;5050607;28;20257;-73
2023/03/22 09:44:33;;;;;;;10.03;4.50;;;;;;;10.05;100.00;99096.91;5050304;28;20593;-73
2023/03/22 09:47:04;;;;;;;8.03;4.13;;;;;;;10.03;100.00;99091.91;5050344;28;20200;-74
2023/03/22 09:49:36;;;;;;;9.17;4.80;;;;;;;10.08;100.00;99097.50;5050154;28;20235;-73
2023/03/22 09:52:06;;;;;;;4.70;3.27;;;;;;;10.27;100.00;99101.34;5050268;28;20198;-73
2023/03/22 09:54:34;;;;;;;7.30;4.63;;;;;;;10.12;100.00;99096.38;5049929;28;20219;-73
2023/03/22 09:57:08;;;;;;;8.40;4.57;;;;;;;10.23;100.00;99099.91;5049341;28;20191;-74
2023/03/22 09:59:42;;;;;;;7.03;4.40;;;;;;;10.04;100.00;99095.28;5050187;28;20643;-74
2023/03/22 10:02:32;;;;;;;6.73;4.73;;;;;;;10.22;100.00;99098.28;5050271;28;20202;-74
2023/03/22 10:05:10;;;;;;;6.90;3.70;;;;;;;10.28;100.00;99103.00;5050325;28;20742;-74
2023/03/22 10:07:53;;;;;;;6.20;2.43;;;;;;;10.31;100.00;99105.34;5050478;28;20199;-74
2023/03/22 10:10:22;;;;;;;8.23;3.23;;;;;;;10.42;100.00;99105.38;5050007;28;20231;-74
2023/03/22 10:12:58;;;;;;;6.60;2.77;;;;;;;10.45;100.00;99115.41;5050117;28;20595;-74
2023/03/22 10:15:33;;;;;;;4.73;3.23;;;;;;;10.42;100.00;99110.50;5050268;28;20298;-74
2023/03/22 10:18:02;;;;;;;5.73;2.83;;;;;;;10.43;100.00;99114.69;5050020;28;20222;-74
2023/03/22 10:20:36;;;;;;;8.37;3.93;;;;;;;10.42;100.00;99110.50;5050180;28;20210;-74
2023/03/22 10:23:09;;;;;;;6.30;3.13;;;;;;;10.27;100.00;99111.56;5049931;28;20211;-74
2023/03/22 10:25:38;;;;;;;6.23;3.37;;;;;;;10.38;100.00;99111.63;5049920;28;20199;-74
2023/03/22 10:28:15;;;;;;;5.90;3.87;;;;;;;10.52;100.00;99111.47;5049740;28;20230;-74
2023/03/22 10:30:49;;;;;;;6.37;4.20;;;;;;;10.55;100.00;99110.44;5049887;28;20203;-74
2023/03/22 10:33:23;;;;;;;5.43;3.70;;;;;;;10.35;100.00;99109.28;5050002;28;20309;-74
2023/03/22 10:35:52;;;;;;;4.80;3.57;;;;;;;10.52;100.00;99118.31;5050134;28;20199;-74
2023/03/22 10:38:24;;;;;;;7.03;3.37;;;;;;;10.54;100.00;99112.19;5049877;28;20223;-74
2023/03/22 10:40:53;;;;;;;5.77;3.73;;;;;;;10.60;100.00;99106.63;5049837;28;20200;-74
2023/03/22 10:43:25;;;;;;;5.13;3.10;;;;;;;10.58;100.00;99111.03;5049969;28;20629;-74
2023/03/22 10:45:55;;;;;;;8.67;4.33;;;;;;;10.50;100.00;99113.34;5049636;28;20257;-74
2023/03/22 10:48:28;;;;;;;5.67;3.63;;;;;;;10.48;100.00;99115.19;5049967;28;20230;-74
2023/03/22 10:50:56;;;;;;;10.53;3.63;;;;;;;10.50;100.00;99110.78;5050042;28;20249;-74
2023/03/22 10:53:30;;;;;;;4.33;3.27;;;;;;;10.46;100.00;99101.69;5051391;28;20229;-74
2023/03/22 10:55:57;;;;;;;11.30;3.77;;;;;;;10.44;100.00;99108.63;5050465;28;20187;-74
2023/03/22 10:58:29;;;;;;;4.53;3.37;;;;;;;10.43;100.00;99102.72;5050568;28;20223;-74
2023/03/22 11:01:00;;;;;;;6.80;3.47;;;;;;;10.52;100.00;99105.53;5050989;28;20188;-74
2023/03/22 11:03:30;;;;;;;6.50;4.07;;;;;;;10.56;100.00;99112.88;5049509;28;20306;-74
2023/03/22 11:06:05;;;;;;;5.70;3.80;;;;;;;10.56;100.00;99105.22;5049696;28;20195;-74
2023/03/22 11:08:39;;;;;;;11.37;2.70;;;;;;;10.54;100.00;99103.69;5051055;28;20319;-74
2023/03/22 11:11:07;;;;;;;3.67;3.00;;;;;;;10.46;100.00;99099.13;5053423;28;20205;-74
2023/03/22 11:13:35;;;;;;;5.97;3.27;;;;;;;10.47;100.00;99095.66;5053081;28;20234;-74
2023/03/22 11:16:04;;;;;;;3.67;2.53;;;;;;;10.57;100.00;99093.25;5053090;28;20214;-74
2023/03/22 11:18:33;;;;;;;5.83;3.47;;;;;;;10.55;100.00;99095.91;5053124;28;20707;-74
2023/03/22 11:21:06;;;;;;;6.20;3.63;;;;;;;10.49;100.00;99085.31;5053182;28;20207;-74
2023/03/22 11:23:34;;;;;;;4.40;3.77;;;;;;;10.53;100.00;99097.78;5053225;28;20310;-74
2023/03/22 11:26:10;;;;;;;7.60;3.67;;;;;;;10.46;100.00;99096.56;5052848;28;20195;-74
2023/03/22 11:28:41;;;;;;;8.70;3.67;;;;;;;10.35;100.00;99094.75;5053146;28;20314;-74
2023/03/22 11:31:11;;;;;;;4.60;2.73;;;;;;;10.42;100.00;99090.88;5053061;28;20279;-74
2023/03/22 11:33:44;;;;;;;4.33;3.10;;;;;;;10.43;100.00;99091.69;5053111;28;20232;-74
2023/03/22 11:36:17;;;;;;;2.87;2.23;;;;;;;10.54;100.00;99085.81;5052842;28;20691;-74
2023/03/22 11:38:45;;;;;;;2.37;1.93;;;;;;;10.49;100.00;99086.13;5052902;28;20224;-74